sensor_id;sensor_type;location;lat;lon;timestamp;P1;P2;P0
40371;PMS5003;28564;53.346;-6.554;2023-03-01T00:01:08;24;24;
40371;PMS5003;28564;53.346;-6.554;2023-03-01T00:03:36;23;21;
40371;PMS5003;28564;53.346;-6.554;2023-03-01T00:06:04;23;22;
40371;PMS5003;28564;53.346;-6.554;2023-03-01T00:08:33;27;25;
40371;PMS5003;28564;53.346;-6.554;2023-03-01T00:11:01;25;22;
40371;PMS5003;28564;53.346;-6.554;2023-03-01T00:13:30;28;24;
40371;PMS5003;28564;53.346;-6.554;2023-03-01T00:15:58;25;20;
40371;PMS5003;28564;53.346;-6.554;2023-03-01T00:18:25;24;23;
40371;PMS5003;28564;53.346;-6.554;2023-03-01T00:20:53;24;24;
40371;PMS5003;28564;53.346;-6.554;2023-03-01T00:23:21;25;23;
40371;PMS5003;28564;53.346;-6.554;2023-03-01T00:25:49;27;22;
40371;PMS5003;28564;53.346;-6.554;2023-03-01T00:28:17;23;22;
40371;PMS5003;28564;53.346;-6.554;2023-03-01T00:30:45;27;23;
40371;PMS5003;28564;53.346;-6.554;2023-03-01T00:33:13;29;22;
40371;PMS5003;28564;53.346;-6.554;2023-03-01T00:35:41;25;22;
40371;PMS5003;28564;53.346;-6.554;2023-03-01T00:38:09;21;20;
40371;PMS5003;28564;53.346;-6.554;2023-03-01T00:40:37;29;22;
40371;PMS5003;28564;53.346;-6.554;2023-03-01T00:43:04;22;22;
40371;PMS5003;28564;53.346;-6.554;2023-03-01T00:45:32;18;18;
40371;PMS5003;28564;53.346;-6.554;2023-03-01T00:48:00;22;22;
40371;PMS5003;28564;53.346;-6.554;2023-03-01T00:50:27;22;19;
40371;PMS5003;28564;53.346;-6.554;2023-03-01T00:52:54;22;21;
40371;PMS5003;28564;53.346;-6.554;2023-03-01T00:55:22;20;20;
40371;PMS5003;28564;53.346;-6.554;2023-03-01T00:57:50;28;21;
40371;PMS5003;28564;53.346;-6.554;2023-03-01T01:00:18;21;20;
40371;PMS5003;28564;53.346;-6.554;2023-03-01T01:02:46;23;20;
40371;PMS5003;28564;53.346;-6.554;2023-03-01T01:05:13;28;23;
40371;PMS5003;28564;53.346;-6.554;2023-03-01T01:07:41;21;20;
40371;PMS5003;28564;53.346;-6.554;2023-03-01T01:10:08;17;16;
40371;PMS5003;28564;53.346;-6.554;2023-03-01T01:12:36;24;21;
40371;PMS5003;28564;53.346;-6.554;2023-03-01T01:15:03;30;22;
40371;PMS5003;28564;53.346;-6.554;2023-03-01T01:17:31;21;19;
40371;PMS5003;28564;53.346;-6.554;2023-03-01T01:19:58;16;14;
40371;PMS5003;28564;53.346;-6.554;2023-03-01T01:22:26;20;15;
40371;PMS5003;28564;53.346;-6.554;2023-03-01T01:24:53;26;19;
40371;PMS5003;28564;53.346;-6.554;2023-03-01T01:27:20;16;15;
40371;PMS5003;28564;53.346;-6.554;2023-03-01T01:29:47;21;19;
40371;PMS5003;28564;53.346;-6.554;2023-03-01T01:32:14;16;15;
40371;PMS5003;28564;53.346;-6.554;2023-03-01T01:34:41;15;14;
40371;PMS5003;28564;53.346;-6.554;2023-03-01T01:37:08;19;13;
40371;PMS5003;28564;53.346;-6.554;2023-03-01T01:39:36;11;11;
40371;PMS5003;28564;53.346;-6.554;2023-03-01T01:42:02;7;7;
40371;PMS5003;28564;53.346;-6.554;2023-03-01T01:44:30;7;7;
40371;PMS5003;28564;53.346;-6.554;2023-03-01T01:47:00;4;4;
40371;PMS5003;28564;53.346;-6.554;2023-03-01T01:49:31;1;1;
40371;PMS5003;28564;53.346;-6.554;2023-03-01T01:52:03;1;1;
40371;PMS5003;28564;53.346;-6.554;2023-03-01T01:54:38;0;0;
40371;PMS5003;28564;53.346;-6.554;2023-03-01T01:57:10;0;0;
40371;PMS5003;28564;53.346;-6.554;2023-03-01T01:59:41;0;0;
40371;PMS5003;28564;53.346;-6.554;2023-03-01T02:02:12;0;0;
40371;PMS5003;28564;53.346;-6.554;2023-03-01T02:04:39;0;0;
40371;PMS5003;28564;53.346;-6.554;2023-03-01T02:07:09;0;0;
40371;PMS5003;28564;53.346;-6.554;2023-03-01T02:09:41;0;0;
40371;PMS5003;28564;53.346;-6.554;2023-03-01T02:12:12;1;1;
40371;PMS5003;28564;53.346;-6.554;2023-03-01T02:14:39;1;1;
40371;PMS5003;28564;53.346;-6.554;2023-03-01T02:17:07;0;0;
40371;PMS5003;28564;53.346;-6.554;2023-03-01T02:19:38;1;0;
40371;PMS5003;28564;53.346;-6.554;2023-03-01T02:22:18;2;0;
40371;PMS5003;28564;53.346;-6.554;2023-03-01T02:24:52;0;0;
40371;PMS5003;28564;53.346;-6.554;2023-03-01T02:27:31;0;0;
40371;PMS5003;28564;53.346;-6.554;2023-03-01T02:30:05;0;0;
40371;PMS5003;28564;53.346;-6.554;2023-03-01T02:32:34;0;0;
40371;PMS5003;28564;53.346;-6.554;2023-03-01T02:35:01;0;0;
40371;PMS5003;28564;53.346;-6.554;2023-03-01T02:37:29;0;0;
40371;PMS5003;28564;53.346;-6.554;2023-03-01T02:39:58;0;0;
40371;PMS5003;28564;53.346;-6.554;2023-03-01T02:42:30;0;0;
40371;PMS5003;28564;53.346;-6.554;2023-03-01T02:45:01;0;0;
40371;PMS5003;28564;53.346;-6.554;2023-03-01T02:47:30;0;0;
40371;PMS5003;28564;53.346;-6.554;2023-03-01T02:49:57;0;0;
40371;PMS5003;28564;53.346;-6.554;2023-03-01T02:52:28;0;0;
40371;PMS5003;28564;53.346;-6.554;2023-03-01T02:55:07;1;0;
40371;PMS5003;28564;53.346;-6.554;2023-03-01T02:57:38;1;0;
40371;PMS5003;28564;53.346;-6.554;2023-03-01T03:00:08;0;0;
40371;PMS5003;28564;53.346;-6.554;2023-03-01T03:02:37;2;1;
40371;PMS5003;28564;53.346;-6.554;2023-03-01T03:05:06;0;0;
40371;PMS5003;28564;53.346;-6.554;2023-03-01T03:07:36;0;0;
40371;PMS5003;28564;53.346;-6.554;2023-03-01T03:10:07;1;0;
40371;PMS5003;28564;53.346;-6.554;2023-03-01T03:12:36;0;0;
40371;PMS5003;28564;53.346;-6.554;2023-03-01T03:15:05;0;0;
40371;PMS5003;28564;53.346;-6.554;2023-03-01T03:17:34;0;0;
40371;PMS5003;28564;53.346;-6.554;2023-03-01T03:20:03;1;0;
40371;PMS5003;28564;53.346;-6.554;2023-03-01T03:22:32;0;0;
40371;PMS5003;28564;53.346;-6.554;2023-03-01T03:24:59;0;0;
40371;PMS5003;28564;53.346;-6.554;2023-03-01T03:27:27;0;0;
40371;PMS5003;28564;53.346;-6.554;2023-03-01T03:29:54;0;0;
40371;PMS5003;28564;53.346;-6.554;2023-03-01T03:32:21;0;0;
40371;PMS5003;28564;53.346;-6.554;2023-03-01T03:34:48;0;0;
40371;PMS5003;28564;53.346;-6.554;2023-03-01T03:37:16;0;0;
40371;PMS5003;28564;53.346;-6.554;2023-03-01T03:39:43;0;0;
40371;PMS5003;28564;53.346;-6.554;2023-03-01T03:42:10;2;0;
40371;PMS5003;28564;53.346;-6.554;2023-03-01T03:44:38;0;0;
40371;PMS5003;28564;53.346;-6.554;2023-03-01T03:47:05;0;0;
40371;PMS5003;28564;53.346;-6.554;2023-03-01T03:49:33;0;0;
40371;PMS5003;28564;53.346;-6.554;2023-03-01T03:52:00;0;0;
40371;PMS5003;28564;53.346;-6.554;2023-03-01T03:54:28;0;0;
40371;PMS5003;28564;53.346;-6.554;2023-03-01T03:56:55;2;0;
40371;PMS5003;28564;53.346;-6.554;2023-03-01T03:59:22;1;0;
40371;PMS5003;28564;53.346;-6.554;2023-03-01T04:01:49;2;0;
40371;PMS5003;28564;53.346;-6.554;2023-03-01T04:04:17;0;0;
40371;PMS5003;28564;53.346;-6.554;2023-03-01T04:06:44;0;0;
40371;PMS5003;28564;53.346;-6.554;2023-03-01T04:09:11;1;0;
40371;PMS5003;28564;53.346;-6.554;2023-03-01T04:11:38;1;0;
40371;PMS5003;28564;53.346;-6.554;2023-03-01T04:14:06;0;0;
40371;PMS5003;28564;53.346;-6.554;2023-03-01T04:16:33;0;0;
40371;PMS5003;28564;53.346;-6.554;2023-03-01T04:19:00;0;0;
40371;PMS5003;28564;53.346;-6.554;2023-03-01T04:21:28;0;0;
40371;PMS5003;28564;53.346;-6.554;2023-03-01T04:23:55;0;0;
40371;PMS5003;28564;53.346;-6.554;2023-03-01T04:26:22;0;0;
40371;PMS5003;28564;53.346;-6.554;2023-03-01T04:28:49;3;1;
40371;PMS5003;28564;53.346;-6.554;2023-03-01T04:31:17;0;0;
40371;PMS5003;28564;53.346;-6.554;2023-03-01T04:33:46;0;0;
40371;PMS5003;28564;53.346;-6.554;2023-03-01T04:36:15;0;0;
40371;PMS5003;28564;53.346;-6.554;2023-03-01T04:38:43;0;0;
40371;PMS5003;28564;53.346;-6.554;2023-03-01T04:41:11;0;0;
40371;PMS5003;28564;53.346;-6.554;2023-03-01T04:43:38;0;0;
40371;PMS5003;28564;53.346;-6.554;2023-03-01T04:46:06;0;0;
40371;PMS5003;28564;53.346;-6.554;2023-03-01T04:48:35;0;0;
40371;PMS5003;28564;53.346;-6.554;2023-03-01T04:51:03;0;0;
40371;PMS5003;28564;53.346;-6.554;2023-03-01T04:53:31;1;1;
40371;PMS5003;28564;53.346;-6.554;2023-03-01T04:55:59;0;0;
40371;PMS5003;28564;53.346;-6.554;2023-03-01T04:58:27;1;1;
40371;PMS5003;28564;53.346;-6.554;2023-03-01T05:00:54;0;0;
40371;PMS5003;28564;53.346;-6.554;2023-03-01T05:03:22;0;0;
40371;PMS5003;28564;53.346;-6.554;2023-03-01T05:05:49;0;0;
40371;PMS5003;28564;53.346;-6.554;2023-03-01T05:08:18;0;0;
40371;PMS5003;28564;53.346;-6.554;2023-03-01T05:10:46;0;0;
40371;PMS5003;28564;53.346;-6.554;2023-03-01T05:13:15;0;0;
40371;PMS5003;28564;53.346;-6.554;2023-03-01T05:15:43;0;0;
40371;PMS5003;28564;53.346;-6.554;2023-03-01T05:18:10;0;0;
40371;PMS5003;28564;53.346;-6.554;2023-03-01T05:20:38;0;0;
40371;PMS5003;28564;53.346;-6.554;2023-03-01T05:23:05;0;0;
40371;PMS5003;28564;53.346;-6.554;2023-03-01T05:25:33;0;0;
40371;PMS5003;28564;53.346;-6.554;2023-03-01T05:28:01;0;0;
40371;PMS5003;28564;53.346;-6.554;2023-03-01T05:30:30;0;0;
40371;PMS5003;28564;53.346;-6.554;2023-03-01T05:32:58;0;0;
40371;PMS5003;28564;53.346;-6.554;2023-03-01T05:35:25;0;0;
40371;PMS5003;28564;53.346;-6.554;2023-03-01T05:37:53;0;0;
40371;PMS5003;28564;53.346;-6.554;2023-03-01T05:40:21;0;0;
40371;PMS5003;28564;53.346;-6.554;2023-03-01T05:42:50;2;0;
40371;PMS5003;28564;53.346;-6.554;2023-03-01T05:45:20;0;0;
40371;PMS5003;28564;53.346;-6.554;2023-03-01T05:47:48;0;0;
40371;PMS5003;28564;53.346;-6.554;2023-03-01T05:50:18;0;0;
40371;PMS5003;28564;53.346;-6.554;2023-03-01T05:52:47;0;0;
40371;PMS5003;28564;53.346;-6.554;2023-03-01T05:55:16;1;1;
40371;PMS5003;28564;53.346;-6.554;2023-03-01T05:57:45;0;0;
40371;PMS5003;28564;53.346;-6.554;2023-03-01T06:00:14;0;0;
40371;PMS5003;28564;53.346;-6.554;2023-03-01T06:02:44;0;0;
40371;PMS5003;28564;53.346;-6.554;2023-03-01T06:05:12;0;0;
40371;PMS5003;28564;53.346;-6.554;2023-03-01T06:07:40;0;0;
40371;PMS5003;28564;53.346;-6.554;2023-03-01T06:10:09;1;1;
40371;PMS5003;28564;53.346;-6.554;2023-03-01T06:12:38;0;0;
40371;PMS5003;28564;53.346;-6.554;2023-03-01T06:15:08;0;0;
40371;PMS5003;28564;53.346;-6.554;2023-03-01T06:17:37;0;0;
40371;PMS5003;28564;53.346;-6.554;2023-03-01T06:20:06;1;1;
40371;PMS5003;28564;53.346;-6.554;2023-03-01T06:22:38;0;0;
40371;PMS5003;28564;53.346;-6.554;2023-03-01T06:25:06;0;0;
40371;PMS5003;28564;53.346;-6.554;2023-03-01T06:27:34;2;2;
40371;PMS5003;28564;53.346;-6.554;2023-03-01T06:30:01;0;0;
40371;PMS5003;28564;53.346;-6.554;2023-03-01T06:32:28;0;0;
40371;PMS5003;28564;53.346;-6.554;2023-03-01T06:34:56;0;0;
40371;PMS5003;28564;53.346;-6.554;2023-03-01T06:37:23;0;0;
40371;PMS5003;28564;53.346;-6.554;2023-03-01T06:39:50;0;0;
40371;PMS5003;28564;53.346;-6.554;2023-03-01T06:42:17;1;1;
40371;PMS5003;28564;53.346;-6.554;2023-03-01T06:44:45;0;0;
40371;PMS5003;28564;53.346;-6.554;2023-03-01T06:47:12;1;0;
40371;PMS5003;28564;53.346;-6.554;2023-03-01T06:49:39;2;1;
40371;PMS5003;28564;53.346;-6.554;2023-03-01T06:52:07;0;0;
40371;PMS5003;28564;53.346;-6.554;2023-03-01T06:54:35;0;0;
40371;PMS5003;28564;53.346;-6.554;2023-03-01T06:57:02;0;0;
40371;PMS5003;28564;53.346;-6.554;2023-03-01T06:59:29;1;1;
40371;PMS5003;28564;53.346;-6.554;2023-03-01T07:01:57;0;0;
40371;PMS5003;28564;53.346;-6.554;2023-03-01T07:04:24;1;1;
40371;PMS5003;28564;53.346;-6.554;2023-03-01T07:06:52;2;1;
40371;PMS5003;28564;53.346;-6.554;2023-03-01T07:09:19;0;0;
40371;PMS5003;28564;53.346;-6.554;2023-03-01T07:11:47;0;0;
40371;PMS5003;28564;53.346;-6.554;2023-03-01T07:14:14;0;0;
40371;PMS5003;28564;53.346;-6.554;2023-03-01T07:16:41;0;0;
40371;PMS5003;28564;53.346;-6.554;2023-03-01T07:19:08;0;0;
40371;PMS5003;28564;53.346;-6.554;2023-03-01T07:21:36;2;0;
40371;PMS5003;28564;53.346;-6.554;2023-03-01T07:24:03;1;0;
40371;PMS5003;28564;53.346;-6.554;2023-03-01T07:26:31;1;1;
40371;PMS5003;28564;53.346;-6.554;2023-03-01T07:28:59;0;0;
40371;PMS5003;28564;53.346;-6.554;2023-03-01T07:31:27;0;0;
40371;PMS5003;28564;53.346;-6.554;2023-03-01T07:33:54;1;1;
40371;PMS5003;28564;53.346;-6.554;2023-03-01T07:36:21;0;0;
40371;PMS5003;28564;53.346;-6.554;2023-03-01T07:38:50;2;2;
40371;PMS5003;28564;53.346;-6.554;2023-03-01T07:41:18;1;0;
40371;PMS5003;28564;53.346;-6.554;2023-03-01T07:43:46;1;1;
40371;PMS5003;28564;53.346;-6.554;2023-03-01T07:46:14;1;1;
40371;PMS5003;28564;53.346;-6.554;2023-03-01T07:48:41;3;1;
40371;PMS5003;28564;53.346;-6.554;2023-03-01T07:51:09;1;1;
40371;PMS5003;28564;53.346;-6.554;2023-03-01T07:53:36;0;0;
40371;PMS5003;28564;53.346;-6.554;2023-03-01T07:56:04;2;0;
40371;PMS5003;28564;53.346;-6.554;2023-03-01T07:58:33;0;0;
40371;PMS5003;28564;53.346;-6.554;2023-03-01T08:01:02;1;0;
40371;PMS5003;28564;53.346;-6.554;2023-03-01T08:03:30;1;1;
40371;PMS5003;28564;53.346;-6.554;2023-03-01T08:05:59;2;2;
40371;PMS5003;28564;53.346;-6.554;2023-03-01T08:08:26;0;0;
40371;PMS5003;28564;53.346;-6.554;2023-03-01T08:10:55;1;0;
40371;PMS5003;28564;53.346;-6.554;2023-03-01T08:13:23;0;0;
40371;PMS5003;28564;53.346;-6.554;2023-03-01T08:15:52;0;0;
40371;PMS5003;28564;53.346;-6.554;2023-03-01T08:18:19;0;0;
40371;PMS5003;28564;53.346;-6.554;2023-03-01T08:20:47;0;0;
40371;PMS5003;28564;53.346;-6.554;2023-03-01T08:23:14;1;1;
40371;PMS5003;28564;53.346;-6.554;2023-03-01T08:25:41;1;0;
40371;PMS5003;28564;53.346;-6.554;2023-03-01T08:28:09;0;0;
40371;PMS5003;28564;53.346;-6.554;2023-03-01T08:30:36;0;0;
40371;PMS5003;28564;53.346;-6.554;2023-03-01T08:33:03;1;1;
40371;PMS5003;28564;53.346;-6.554;2023-03-01T08:35:30;1;1;
40371;PMS5003;28564;53.346;-6.554;2023-03-01T08:37:58;0;0;
40371;PMS5003;28564;53.346;-6.554;2023-03-01T08:40:25;0;0;
40371;PMS5003;28564;53.346;-6.554;2023-03-01T08:42:52;0;0;
40371;PMS5003;28564;53.346;-6.554;2023-03-01T08:45:19;1;1;
40371;PMS5003;28564;53.346;-6.554;2023-03-01T08:47:47;2;0;
40371;PMS5003;28564;53.346;-6.554;2023-03-01T08:50:14;0;0;
40371;PMS5003;28564;53.346;-6.554;2023-03-01T08:52:42;1;1;
40371;PMS5003;28564;53.346;-6.554;2023-03-01T08:55:09;0;0;
40371;PMS5003;28564;53.346;-6.554;2023-03-01T08:57:37;0;0;
40371;PMS5003;28564;53.346;-6.554;2023-03-01T09:00:04;0;0;
40371;PMS5003;28564;53.346;-6.554;2023-03-01T09:02:33;0;0;
40371;PMS5003;28564;53.346;-6.554;2023-03-01T09:05:00;0;0;
40371;PMS5003;28564;53.346;-6.554;2023-03-01T09:07:27;0;0;
40371;PMS5003;28564;53.346;-6.554;2023-03-01T09:09:55;0;0;
40371;PMS5003;28564;53.346;-6.554;2023-03-01T09:12:22;1;1;
40371;PMS5003;28564;53.346;-6.554;2023-03-01T09:14:49;2;0;
40371;PMS5003;28564;53.346;-6.554;2023-03-01T09:17:17;0;0;
40371;PMS5003;28564;53.346;-6.554;2023-03-01T09:19:44;0;0;
40371;PMS5003;28564;53.346;-6.554;2023-03-01T09:22:11;0;0;
40371;PMS5003;28564;53.346;-6.554;2023-03-01T09:24:38;0;0;
40371;PMS5003;28564;53.346;-6.554;2023-03-01T09:27:05;0;0;
40371;PMS5003;28564;53.346;-6.554;2023-03-01T09:29:32;0;0;
40371;PMS5003;28564;53.346;-6.554;2023-03-01T09:32:00;0;0;
40371;PMS5003;28564;53.346;-6.554;2023-03-01T09:34:27;3;1;
40371;PMS5003;28564;53.346;-6.554;2023-03-01T09:36:54;0;0;
40371;PMS5003;28564;53.346;-6.554;2023-03-01T09:39:23;0;0;
40371;PMS5003;28564;53.346;-6.554;2023-03-01T09:41:54;0;0;
40371;PMS5003;28564;53.346;-6.554;2023-03-01T09:44:28;0;0;
40371;PMS5003;28564;53.346;-6.554;2023-03-01T09:47:02;0;0;
40371;PMS5003;28564;53.346;-6.554;2023-03-01T09:49:31;0;0;
40371;PMS5003;28564;53.346;-6.554;2023-03-01T09:52:03;0;0;
40371;PMS5003;28564;53.346;-6.554;2023-03-01T09:54:54;0;0;
40371;PMS5003;28564;53.346;-6.554;2023-03-01T09:57:29;0;0;
40371;PMS5003;28564;53.346;-6.554;2023-03-01T10:03:55;0;0;
40371;PMS5003;28564;53.346;-6.554;2023-03-01T10:06:31;0;0;
40371;PMS5003;28564;53.346;-6.554;2023-03-01T10:08:59;0;0;
40371;PMS5003;28564;53.346;-6.554;2023-03-01T10:11:33;0;0;
40371;PMS5003;28564;53.346;-6.554;2023-03-01T10:14:05;0;0;
40371;PMS5003;28564;53.346;-6.554;2023-03-01T10:16:43;0;0;
40371;PMS5003;28564;53.346;-6.554;2023-03-01T10:19:20;1;1;
40371;PMS5003;28564;53.346;-6.554;2023-03-01T10:21:52;1;0;
40371;PMS5003;28564;53.346;-6.554;2023-03-01T10:24:20;0;0;
40371;PMS5003;28564;53.346;-6.554;2023-03-01T10:26:50;2;1;
40371;PMS5003;28564;53.346;-6.554;2023-03-01T10:29:24;3;2;
40371;PMS5003;28564;53.346;-6.554;2023-03-01T10:31:56;0;0;
40371;PMS5003;28564;53.346;-6.554;2023-03-01T10:34:27;0;0;
40371;PMS5003;28564;53.346;-6.554;2023-03-01T10:36:58;0;0;
40371;PMS5003;28564;53.346;-6.554;2023-03-01T10:39:36;0;0;
40371;PMS5003;28564;53.346;-6.554;2023-03-01T10:42:22;0;0;
40371;PMS5003;28564;53.346;-6.554;2023-03-01T10:44:57;0;0;
40371;PMS5003;28564;53.346;-6.554;2023-03-01T10:47:40;0;0;
40371;PMS5003;28564;53.346;-6.554;2023-03-01T10:50:18;0;0;
40371;PMS5003;28564;53.346;-6.554;2023-03-01T10:52:57;0;0;
40371;PMS5003;28564;53.346;-6.554;2023-03-01T10:55:30;0;0;
40371;PMS5003;28564;53.346;-6.554;2023-03-01T10:58:16;0;0;
40371;PMS5003;28564;53.346;-6.554;2023-03-01T11:00:47;0;0;
40371;PMS5003;28564;53.346;-6.554;2023-03-01T11:03:18;0;0;
40371;PMS5003;28564;53.346;-6.554;2023-03-01T11:05:53;0;0;
40371;PMS5003;28564;53.346;-6.554;2023-03-01T11:08:31;0;0;
40371;PMS5003;28564;53.346;-6.554;2023-03-01T11:11:05;0;0;
40371;PMS5003;28564;53.346;-6.554;2023-03-01T11:13:52;0;0;
40371;PMS5003;28564;53.346;-6.554;2023-03-01T11:16:36;0;0;
40371;PMS5003;28564;53.346;-6.554;2023-03-01T11:19:21;0;0;
40371;PMS5003;28564;53.346;-6.554;2023-03-01T11:21:58;0;0;
40371;PMS5003;28564;53.346;-6.554;2023-03-01T11:24:32;0;0;
40371;PMS5003;28564;53.346;-6.554;2023-03-01T11:27:08;0;0;
40371;PMS5003;28564;53.346;-6.554;2023-03-01T11:29:45;0;0;
40371;PMS5003;28564;53.346;-6.554;2023-03-01T11:32:16;1;1;
40371;PMS5003;28564;53.346;-6.554;2023-03-01T11:34:49;2;2;
40371;PMS5003;28564;53.346;-6.554;2023-03-01T11:37:22;2;2;
40371;PMS5003;28564;53.346;-6.554;2023-03-01T11:39:59;2;2;
40371;PMS5003;28564;53.346;-6.554;2023-03-01T11:42:40;2;2;
40371;PMS5003;28564;53.346;-6.554;2023-03-01T11:45:14;2;2;
40371;PMS5003;28564;53.346;-6.554;2023-03-01T11:47:45;1;1;
40371;PMS5003;28564;53.346;-6.554;2023-03-01T11:50:34;1;1;
40371;PMS5003;28564;53.346;-6.554;2023-03-01T11:53:13;1;1;
40371;PMS5003;28564;53.346;-6.554;2023-03-01T11:56:01;0;0;
40371;PMS5003;28564;53.346;-6.554;2023-03-01T12:05:03;0;0;
40371;PMS5003;28564;53.346;-6.554;2023-03-01T12:07:51;1;1;
40371;PMS5003;28564;53.346;-6.554;2023-03-01T12:10:23;0;0;
40371;PMS5003;28564;53.346;-6.554;2023-03-01T12:13:03;0;0;
40371;PMS5003;28564;53.346;-6.554;2023-03-01T12:16:03;2;0;
40371;PMS5003;28564;53.346;-6.554;2023-03-01T12:19:02;0;0;
40371;PMS5003;28564;53.346;-6.554;2023-03-01T12:21:44;1;1;
40371;PMS5003;28564;53.346;-6.554;2023-03-01T12:24:28;0;0;
40371;PMS5003;28564;53.346;-6.554;2023-03-01T12:27:44;2;1;
40371;PMS5003;28564;53.346;-6.554;2023-03-01T12:30:23;1;0;
40371;PMS5003;28564;53.346;-6.554;2023-03-01T12:33:06;0;0;
40371;PMS5003;28564;53.346;-6.554;2023-03-01T12:35:49;0;0;
40371;PMS5003;28564;53.346;-6.554;2023-03-01T12:38:37;1;1;
40371;PMS5003;28564;53.346;-6.554;2023-03-01T12:41:21;0;0;
40371;PMS5003;28564;53.346;-6.554;2023-03-01T12:44:11;1;0;
40371;PMS5003;28564;53.346;-6.554;2023-03-01T12:46:52;0;0;
40371;PMS5003;28564;53.346;-6.554;2023-03-01T12:49:33;0;0;
40371;PMS5003;28564;53.346;-6.554;2023-03-01T12:52:07;0;0;
40371;PMS5003;28564;53.346;-6.554;2023-03-01T12:54:40;10;9;
40371;PMS5003;28564;53.346;-6.554;2023-03-01T12:57:11;0;0;
40371;PMS5003;28564;53.346;-6.554;2023-03-01T12:59:46;2;1;
40371;PMS5003;28564;53.346;-6.554;2023-03-01T13:02:25;0;0;
40371;PMS5003;28564;53.346;-6.554;2023-03-01T13:05:04;0;0;
40371;PMS5003;28564;53.346;-6.554;2023-03-01T13:07:49;0;0;
40371;PMS5003;28564;53.346;-6.554;2023-03-01T13:10:22;0;0;
40371;PMS5003;28564;53.346;-6.554;2023-03-01T13:13:12;0;0;
40371;PMS5003;28564;53.346;-6.554;2023-03-01T13:15:41;0;0;
40371;PMS5003;28564;53.346;-6.554;2023-03-01T13:18:27;0;0;
40371;PMS5003;28564;53.346;-6.554;2023-03-01T13:20:56;0;0;
40371;PMS5003;28564;53.346;-6.554;2023-03-01T13:23:28;1;1;
40371;PMS5003;28564;53.346;-6.554;2023-03-01T13:26:04;1;1;
40371;PMS5003;28564;53.346;-6.554;2023-03-01T13:28:39;0;0;
40371;PMS5003;28564;53.346;-6.554;2023-03-01T13:31:56;2;0;
40371;PMS5003;28564;53.346;-6.554;2023-03-01T13:34:41;0;0;
40371;PMS5003;28564;53.346;-6.554;2023-03-01T13:37:17;1;1;
40371;PMS5003;28564;53.346;-6.554;2023-03-01T13:39:48;2;2;
40371;PMS5003;28564;53.346;-6.554;2023-03-01T13:42:48;1;1;
40371;PMS5003;28564;53.346;-6.554;2023-03-01T13:45:20;2;2;
40371;PMS5003;28564;53.346;-6.554;2023-03-01T13:47:53;2;2;
40371;PMS5003;28564;53.346;-6.554;2023-03-01T13:50:25;5;4;
40371;PMS5003;28564;53.346;-6.554;2023-03-01T13:52:59;3;3;
40371;PMS5003;28564;53.346;-6.554;2023-03-01T13:55:32;3;2;
40371;PMS5003;28564;53.346;-6.554;2023-03-01T13:58:05;3;3;
40371;PMS5003;28564;53.346;-6.554;2023-03-01T14:00:44;3;3;
40371;PMS5003;28564;53.346;-6.554;2023-03-01T14:03:13;2;2;
40371;PMS5003;28564;53.346;-6.554;2023-03-01T14:05:42;2;2;
40371;PMS5003;28564;53.346;-6.554;2023-03-01T14:08:20;2;2;
40371;PMS5003;28564;53.346;-6.554;2023-03-01T14:10:53;0;0;
40371;PMS5003;28564;53.346;-6.554;2023-03-01T14:13:33;1;1;
40371;PMS5003;28564;53.346;-6.554;2023-03-01T14:16:18;0;0;
40371;PMS5003;28564;53.346;-6.554;2023-03-01T14:18:55;0;0;
40371;PMS5003;28564;53.346;-6.554;2023-03-01T14:21:32;1;1;
40371;PMS5003;28564;53.346;-6.554;2023-03-01T14:23:59;2;2;
40371;PMS5003;28564;53.346;-6.554;2023-03-01T14:26:27;3;2;
40371;PMS5003;28564;53.346;-6.554;2023-03-01T14:28:54;12;12;
40371;PMS5003;28564;53.346;-6.554;2023-03-01T14:31:37;31;31;
40371;PMS5003;28564;53.346;-6.554;2023-03-01T14:34:05;22;22;
40371;PMS5003;28564;53.346;-6.554;2023-03-01T14:36:33;41;41;
40371;PMS5003;28564;53.346;-6.554;2023-03-01T14:39:01;1;1;
40371;PMS5003;28564;53.346;-6.554;2023-03-01T14:41:42;4;4;
40371;PMS5003;28564;53.346;-6.554;2023-03-01T14:44:12;0;0;
40371;PMS5003;28564;53.346;-6.554;2023-03-01T14:46:45;0;0;
40371;PMS5003;28564;53.346;-6.554;2023-03-01T14:49:14;0;0;
40371;PMS5003;28564;53.346;-6.554;2023-03-01T14:51:48;0;0;
40371;PMS5003;28564;53.346;-6.554;2023-03-01T14:54:20;1;1;
40371;PMS5003;28564;53.346;-6.554;2023-03-01T14:56:50;1;1;
40371;PMS5003;28564;53.346;-6.554;2023-03-01T14:59:19;0;0;
40371;PMS5003;28564;53.346;-6.554;2023-03-01T15:01:49;2;2;
40371;PMS5003;28564;53.346;-6.554;2023-03-01T15:04:18;1;1;
40371;PMS5003;28564;53.346;-6.554;2023-03-01T15:06:46;2;1;
40371;PMS5003;28564;53.346;-6.554;2023-03-01T15:09:16;0;0;
40371;PMS5003;28564;53.346;-6.554;2023-03-01T15:11:44;1;1;
40371;PMS5003;28564;53.346;-6.554;2023-03-01T15:14:44;0;0;
40371;PMS5003;28564;53.346;-6.554;2023-03-01T15:17:20;2;2;
40371;PMS5003;28564;53.346;-6.554;2023-03-01T15:19:56;6;6;
40371;PMS5003;28564;53.346;-6.554;2023-03-01T15:22:25;16;16;
40371;PMS5003;28564;53.346;-6.554;2023-03-01T15:24:53;50;50;
40371;PMS5003;28564;53.346;-6.554;2023-03-01T15:27:22;2;2;
40371;PMS5003;28564;53.346;-6.554;2023-03-01T15:29:52;1;1;
40371;PMS5003;28564;53.346;-6.554;2023-03-01T15:32:24;2;1;
40371;PMS5003;28564;53.346;-6.554;2023-03-01T15:34:53;1;0;
40371;PMS5003;28564;53.346;-6.554;2023-03-01T15:37:54;1;1;
40371;PMS5003;28564;53.346;-6.554;2023-03-01T15:40:22;2;1;
40371;PMS5003;28564;53.346;-6.554;2023-03-01T15:42:51;1;1;
40371;PMS5003;28564;53.346;-6.554;2023-03-01T15:45:22;0;0;
40371;PMS5003;28564;53.346;-6.554;2023-03-01T15:47:51;0;0;
40371;PMS5003;28564;53.346;-6.554;2023-03-01T15:50:22;0;0;
40371;PMS5003;28564;53.346;-6.554;2023-03-01T15:52:53;0;0;
40371;PMS5003;28564;53.346;-6.554;2023-03-01T15:55:21;4;2;
40371;PMS5003;28564;53.346;-6.554;2023-03-01T15:57:50;0;0;
40371;PMS5003;28564;53.346;-6.554;2023-03-01T16:00:25;1;0;
40371;PMS5003;28564;53.346;-6.554;2023-03-01T16:02:53;0;0;
40371;PMS5003;28564;53.346;-6.554;2023-03-01T16:05:21;1;1;
40371;PMS5003;28564;53.346;-6.554;2023-03-01T16:07:50;1;1;
40371;PMS5003;28564;53.346;-6.554;2023-03-01T16:10:18;2;1;
40371;PMS5003;28564;53.346;-6.554;2023-03-01T16:12:46;1;1;
40371;PMS5003;28564;53.346;-6.554;2023-03-01T16:15:15;1;1;
40371;PMS5003;28564;53.346;-6.554;2023-03-01T16:17:44;2;1;
40371;PMS5003;28564;53.346;-6.554;2023-03-01T16:20:12;2;2;
40371;PMS5003;28564;53.346;-6.554;2023-03-01T16:22:40;4;3;
40371;PMS5003;28564;53.346;-6.554;2023-03-01T16:25:09;3;1;
40371;PMS5003;28564;53.346;-6.554;2023-03-01T16:27:36;3;3;
40371;PMS5003;28564;53.346;-6.554;2023-03-01T16:30:04;58;56;
40371;PMS5003;28564;53.346;-6.554;2023-03-01T16:32:32;23;22;
40371;PMS5003;28564;53.346;-6.554;2023-03-01T16:34:59;15;15;
40371;PMS5003;28564;53.346;-6.554;2023-03-01T16:37:27;29;27;
40371;PMS5003;28564;53.346;-6.554;2023-03-01T16:39:55;20;19;
40371;PMS5003;28564;53.346;-6.554;2023-03-01T16:42:23;3;3;
40371;PMS5003;28564;53.346;-6.554;2023-03-01T16:44:54;5;3;
40371;PMS5003;28564;53.346;-6.554;2023-03-01T16:47:22;4;4;
40371;PMS5003;28564;53.346;-6.554;2023-03-01T16:49:51;3;3;
40371;PMS5003;28564;53.346;-6.554;2023-03-01T16:52:18;2;2;
40371;PMS5003;28564;53.346;-6.554;2023-03-01T16:54:45;3;2;
40371;PMS5003;28564;53.346;-6.554;2023-03-01T16:57:12;4;3;
40371;PMS5003;28564;53.346;-6.554;2023-03-01T16:59:40;4;3;
40371;PMS5003;28564;53.346;-6.554;2023-03-01T17:02:08;4;4;
40371;PMS5003;28564;53.346;-6.554;2023-03-01T17:04:37;6;6;
40371;PMS5003;28564;53.346;-6.554;2023-03-01T17:07:05;6;4;